Lyra — CQIE6 — position and weather

sailwx.info

Track history (hours):
 
Tides and Currents Weather Stations Pressure Air Temp Water Temp Dewpoint Dewpoint Depression Visibility Wind Speed Wind Dir Waves Ship Positions

Lyra

Last reported at 2017-Nov-14 11:38 UTC. Time now 2017-Nov-20 21:24 UTC.
Position N 40°59' E 028°60'.

Length 100 m; draft 4.6 m.

Type: Cargo ship. MMSI: 255805938.

Date/timePositionNaut miles runAvg speedWind from/ knotsBaromVisibWave heightAir tempDewpointWater temp
2017-Nov-14 11:38N 40°59' E 028°60'110.4
2017-Nov-14 11:30N 40°57' E 028°59'4 0.3
2017-Nov-13 23:00N 40°57' E 028°53'  
2017-Nov-10 23:01N 37°46' E 025°23'010.2
2017-Nov-10 23:00N 37°46' E 025°23'5 9.8
2017-Nov-10 22:31N 37°42' E 025°21'5 9.8
2017-Nov-10 22:01N 37°37' E 025°19'510.1
2017-Nov-10 21:31N 37°33' E 025°17'510.3
2017-Nov-10 21:01N 37°29' E 025°12'510.5
2017-Nov-10 20:31N 37°26' E 025°07'510.4
2017-Nov-10 20:01N 37°23' E 025°02'510.4
2017-Nov-10 19:30N 37°19' E 024°56'510.0
2017-Nov-10 19:01N 37°16' E 024°51'  
Track history (hours):
 
Tides and Currents Weather Stations Pressure Air Temp Water Temp Dewpoint Dewpoint Depression Visibility Wind Speed Wind Dir Waves Ship Positions

Lyra

Last reported at 2017-Nov-14 11:38 UTC. Time now 2017-Nov-20 21:24 UTC.
Position N 40°59' E 028°60'.

Length 100 m; draft 4.6 m.

Type: Cargo ship. MMSI: 255805938.

Date/timePositionNaut miles runAvg speedWind from/ knotsBaromVisibWave heightAir tempDewpointWater temp
2017-Nov-14 11:38N 40°59' E 028°60'110.4
2017-Nov-14 11:30N 40°57' E 028°59'4 0.3
2017-Nov-13 23:00N 40°57' E 028°53'  
2017-Nov-10 23:01N 37°46' E 025°23'010.2
2017-Nov-10 23:00N 37°46' E 025°23'5 9.8
2017-Nov-10 22:31N 37°42' E 025°21'5 9.8
2017-Nov-10 22:01N 37°37' E 025°19'510.1
2017-Nov-10 21:31N 37°33' E 025°17'510.3
2017-Nov-10 21:01N 37°29' E 025°12'510.5
2017-Nov-10 20:31N 37°26' E 025°07'510.4
2017-Nov-10 20:01N 37°23' E 025°02'510.4
2017-Nov-10 19:30N 37°19' E 024°56'510.0
2017-Nov-10 19:01N 37°16' E 024°51'  

Dump ship's entire track history